Time;durP1;ratioP1;P1;durP2;ratioP2;P2;SDS_P1;SDS_P2;PMS_P1;PMS_P2;Temp;Humidity;BMP_temperature;BMP_pressure;BME280_temperature;BME280_humidity;BME280_pressure;Samples;Min_cycle;Max_cycle;Signal;HPM_P1;HPM_P2
2019/09/02 00:00:07;;;;;;;7.5;3.1;;;;;;;19.06;58.34375;1005.372;;;;
2019/09/02 00:02:31;;;;;;;4.9;2.8;;;;;;;18.94;58.8418;1005.405;;;;
2019/09/02 00:04:57;;;;;;;3.9;2.6;;;;;;;18.9;59.02344;1005.417;;;;
2019/09/02 00:07:22;;;;;;;6;3;;;;;;;18.88;59.21777;1005.436;;;;
2019/09/02 00:09:47;;;;;;;4.1;2.9;;;;;;;18.96;59.10059;1005.421;;;;
2019/09/02 00:12:12;;;;;;;6.9;2.7;;;;;;;18.9;59.34961;1005.443;;;;
2019/09/02 00:14:37;;;;;;;5.8;3.2;;;;;;;18.77;59.7168;1005.435;;;;
2019/09/02 00:17:02;;;;;;;4.2;2.7;;;;;;;18.63;60.33984;1005.462;;;;
2019/09/02 00:19:27;;;;;;;6.6;2.8;;;;;;;18.59;60.56738;1005.458;;;;
2019/09/02 00:21:53;;;;;;;6.4;3.1;;;;;;;18.41;61.2998;1005.527;;;;
2019/09/02 00:24:18;;;;;;;4.4;2.7;;;;;;;18.31;61.65918;1005.56;;;;
2019/09/02 00:26:43;;;;;;;5.8;2.9;;;;;;;18.3;61.83301;1005.575;;;;
2019/09/02 00:29:08;;;;;;;5.1;3.2;;;;;;;18.3;61.92578;1005.617;;;;
2019/09/02 00:31:33;;;;;;;6.8;3.2;;;;;;;18.32;61.87012;1005.6;;;;
2019/09/02 00:33:58;;;;;;;4.9;3.2;;;;;;;18.3;62.06543;1005.635;;;;
2019/09/02 00:36:23;;;;;;;4.3;3.1;;;;;;;18.28;62.23633;1005.646;;;;
2019/09/02 00:38:49;;;;;;;4.8;2.9;;;;;;;18.2;62.48242;1005.686;;;;
2019/09/02 00:41:14;;;;;;;4.2;2.8;;;;;;;18.28;62.41113;1005.73;;;;
2019/09/02 00:43:39;;;;;;;4.4;3;;;;;;;18.4;62.03418;1005.714;;;;
2019/09/02 00:46:04;;;;;;;6.5;3;;;;;;;18.55;61.54004;1005.742;;;;
2019/09/02 00:48:29;;;;;;;4.5;3;;;;;;;18.57;61.58008;1005.744;;;;
2019/09/02 00:50:54;;;;;;;5.2;3.2;;;;;;;18.61;61.44434;1005.753;;;;
2019/09/02 00:53:19;;;;;;;4.1;3.2;;;;;;;18.63;61.37695;1005.746;;;;
2019/09/02 00:55:45;;;;;;;4.2;3.1;;;;;;;18.66;61.31152;1005.772;;;;
2019/09/02 00:58:10;;;;;;;5.7;3.3;;;;;;;18.62;61.57324;1005.765;;;;
2019/09/02 01:00:35;;;;;;;4.2;2.9;;;;;;;18.63;61.75098;1005.79;;;;
2019/09/02 01:03:00;;;;;;;5.4;2.9;;;;;;;18.74;61.27637;1005.766;;;;
2019/09/02 01:05:25;;;;;;;4.4;2.9;;;;;;;18.73;61.2041;1005.802;;;;
2019/09/02 01:07:50;;;;;;;5.8;2.9;;;;;;;18.58;61.80176;1005.856;;;;
2019/09/02 01:10:15;;;;;;;4.7;2.9;;;;;;;18.45;62.22754;1005.854;;;;
2019/09/02 01:12:40;;;;;;;5.3;3;;;;;;;18.51;61.91992;1005.862;;;;
2019/09/02 01:15:05;;;;;;;4.6;3.1;;;;;;;18.77;61.04785;1005.837;;;;
2019/09/02 01:17:31;;;;;;;5.6;3.2;;;;;;;18.74;61.03125;1005.826;;;;
2019/09/02 01:19:56;;;;;;;3.9;2.9;;;;;;;18.39;61.91406;1005.875;;;;
2019/09/02 01:22:21;;;;;;;5.3;3.9;;;;;;;18.38;62.46191;1005.876;;;;
2019/09/02 01:24:46;;;;;;;6.5;3.2;;;;;;;18.58;61.74512;1005.936;;;;
2019/09/02 01:27:11;;;;;;;4.8;3.1;;;;;;;18.57;61.56738;1005.942;;;;
2019/09/02 01:29:36;;;;;;;5.8;3.1;;;;;;;18.64;61.47168;1005.975;;;;
2019/09/02 01:32:01;;;;;;;5.6;3.1;;;;;;;18.59;61.6748;1005.928;;;;
2019/09/02 01:34:26;;;;;;;5.5;3.4;;;;;;;18.5;62.11816;1005.908;;;;
2019/09/02 01:36:52;;;;;;;6;2.9;;;;;;;18.55;62.05566;1005.949;;;;
2019/09/02 01:39:17;;;;;;;4.9;3.2;;;;;;;18.54;62.08789;1005.966;;;;
2019/09/02 01:41:42;;;;;;;4.4;3;;;;;;;18.74;61.46289;1005.934;;;;
2019/09/02 01:44:07;;;;;;;5.2;3;;;;;;;18.85;61.1748;1005.975;;;;
2019/09/02 01:46:32;;;;;;;3.4;2.8;;;;;;;18.83;61.26563;1006.016;;;;
2019/09/02 01:48:57;;;;;;;6.1;3.1;;;;;;;18.54;62.39063;1005.995;;;;
2019/09/02 01:51:22;;;;;;;5;3;;;;;;;18.57;62.25684;1005.965;;;;
2019/09/02 01:53:48;;;;;;;6.4;3.1;;;;;;;18.88;61.43555;1005.968;;;;
2019/09/02 01:56:13;;;;;;;4.5;3;;;;;;;18.73;62.0918;1005.985;;;;
2019/09/02 01:58:38;;;;;;;6.3;3.4;;;;;;;18.15;63.48828;1005.99;;;;
2019/09/02 02:01:03;;;;;;;4.5;3.1;;;;;;;18.17;63.99316;1005.987;;;;
2019/09/02 02:03:28;;;;;;;4.9;3.2;;;;;;;18.39;63.11719;1005.987;;;;
2019/09/02 02:05:53;;;;;;;5.4;3.2;;;;;;;18.4;63.07129;1006.033;;;;
2019/09/02 02:08:18;;;;;;;5.4;3.4;;;;;;;18.33;63.4209;1006.001;;;;
2019/09/02 02:10:43;;;;;;;5.2;3.3;;;;;;;18.35;63.36719;1005.998;;;;
2019/09/02 02:13:08;;;;;;;4.7;3.3;;;;;;;18.15;64.17578;1006.024;;;;
2019/09/02 02:15:33;;;;;;;4.6;3.2;;;;;;;18.09;64.43555;1006.019;;;;
2019/09/02 02:17:58;;;;;;;5.9;3.3;;;;;;;18.12;64.38184;1006.021;;;;
2019/09/02 02:20:24;;;;;;;5.7;3.4;;;;;;;18.09;64.51758;1005.983;;;;
2019/09/02 02:22:49;;;;;;;6.2;3.6;;;;;;;17.89;65.17578;1006.035;;;;
2019/09/02 02:25:14;;;;;;;5.9;3.5;;;;;;;17.86;65.22949;1006.02;;;;
2019/09/02 02:27:39;;;;;;;6.1;3.6;;;;;;;17.82;65.4541;1006.079;;;;
2019/09/02 02:30:04;;;;;;;4.7;3.4;;;;;;;18.04;64.82422;1006.103;;;;
2019/09/02 02:32:30;;;;;;;5.7;3.5;;;;;;;18.01;64.82031;1006.12;;;;
2019/09/02 02:34:54;;;;;;;5.2;3.8;;;;;;;17.88;65.09082;1006.117;;;;
2019/09/02 02:37:20;;;;;;;5.1;3.3;;;;;;;17.93;65.2373;1006.096;;;;
2019/09/02 02:39:45;;;;;;;6.7;3.4;;;;;;;17.86;65.48438;1006.103;;;;
2019/09/02 02:42:10;;;;;;;4.7;3.6;;;;;;;17.87;65.5332;1006.15;;;;
2019/09/02 02:44:35;;;;;;;5.2;3.7;;;;;;;17.54;66.62402;1006.078;;;;
2019/09/02 02:47:00;;;;;;;6.3;3.8;;;;;;;17.42;67.22168;1006.057;;;;
2019/09/02 02:49:25;;;;;;;5.5;3.4;;;;;;;17.34;67.53418;1006.029;;;;
2019/09/02 02:51:50;;;;;;;4.8;3.7;;;;;;;17.44;67.16602;1006.075;;;;
2019/09/02 02:54:15;;;;;;;4.9;3.7;;;;;;;17.38;67.04102;1006.047;;;;
2019/09/02 02:56:40;;;;;;;6.6;4.8;;;;;;;17.28;67.47949;1006.081;;;;
2019/09/02 02:59:06;;;;;;;6.1;3.8;;;;;;;17.22;67.83008;1006.074;;;;
2019/09/02 03:01:31;;;;;;;5.5;3.9;;;;;;;17.33;67.46289;1006.1;;;;
2019/09/02 03:03:56;;;;;;;5.7;3.5;;;;;;;17.37;67.41113;1006.108;;;;
2019/09/02 03:06:21;;;;;;;6;3.9;;;;;;;17.14;68.0166;1006.164;;;;
2019/09/02 03:08:46;;;;;;;6;4;;;;;;;17.07;68.35254;1006.211;;;;
2019/09/02 03:11:11;;;;;;;6.6;4;;;;;;;17.02;68.65918;1006.231;;;;
2019/09/02 03:13:36;;;;;;;6.7;4.4;;;;;;;16.95;68.97363;1006.257;;;;
2019/09/02 03:16:01;;;;;;;6.1;3.8;;;;;;;17.01;68.78613;1006.268;;;;
2019/09/02 03:18:26;;;;;;;6.3;4;;;;;;;17.01;68.51758;1006.255;;;;
2019/09/02 03:20:52;;;;;;;6.1;3.9;;;;;;;17.07;68.36426;1006.292;;;;
2019/09/02 03:23:17;;;;;;;7;4.4;;;;;;;17.05;67.99023;1006.32;;;;
2019/09/02 03:25:42;;;;;;;7.4;3.8;;;;;;;17.03;68.1377;1006.355;;;;
2019/09/02 03:28:07;;;;;;;5.9;3.7;;;;;;;17.26;67.11523;1006.425;;;;
2019/09/02 03:30:32;;;;;;;7.1;3.6;;;;;;;17.38;66.16895;1006.45;;;;
2019/09/02 03:32:57;;;;;;;5.3;3.6;;;;;;;17.36;66.22363;1006.438;;;;
2019/09/02 03:35:22;;;;;;;3.7;3.3;;;;;;;17.41;66.0332;1006.439;;;;
2019/09/02 03:37:47;;;;;;;5.1;3.7;;;;;;;17.23;65.93652;1006.451;;;;
2019/09/02 03:40:13;;;;;;;8.8;3.7;;;;;;;17.2;66.39746;1006.462;;;;
2019/09/02 03:42:38;;;;;;;8;4;;;;;;;17.35;65.81641;1006.497;;;;
2019/09/02 03:45:03;;;;;;;5.3;3.7;;;;;;;17.33;65.5;1006.53;;;;
2019/09/02 03:47:28;;;;;;;5;3.8;;;;;;;17.19;65.86133;1006.59;;;;
2019/09/02 03:49:53;;;;;;;4.5;3.6;;;;;;;17.04;66.57227;1006.6;;;;
2019/09/02 03:52:18;;;;;;;6.6;3.9;;;;;;;16.99;66.65723;1006.605;;;;
2019/09/02 03:54:44;;;;;;;5.7;3.5;;;;;;;16.93;67.00879;1006.564;;;;
2019/09/02 03:57:09;;;;;;;7;3.8;;;;;;;16.96;66.80371;1006.545;;;;
2019/09/02 03:59:34;;;;;;;5.7;3.7;;;;;;;16.83;67.46875;1006.554;;;;
2019/09/02 04:02:28;;;;;;;5.4;3.9;;;;;;;16.76;67.67773;1006.546;;;;
2019/09/02 04:04:53;;;;;;;6;3.8;;;;;;;16.53;68.46582;1006.573;;;;
2019/09/02 04:07:18;;;;;;;7.2;4;;;;;;;16.43;68.84473;1006.673;;;;
2019/09/02 04:09:43;;;;;;;6.1;4;;;;;;;16.34;69.23828;1006.653;;;;
2019/09/02 04:12:08;;;;;;;7;4.2;;;;;;;16.33;69.375;1006.655;;;;
2019/09/02 04:14:33;;;;;;;5.3;4.1;;;;;;;16.35;69.42383;1006.738;;;;
2019/09/02 04:16:58;;;;;;;6.4;4.1;;;;;;;16.36;69.29785;1006.706;;;;
2019/09/02 04:19:33;;;;;;;5.2;3.7;;;;;;;16.27;69.2041;1006.752;;;;
2019/09/02 04:21:49;;;;;;;4.7;3.8;;;;;;;16.09;69.91602;1006.746;;;;
2019/09/02 04:24:14;;;;;;;6.2;4.1;;;;;;;16.03;70.01172;1006.794;;;;
2019/09/02 04:26:39;;;;;;;7.3;3.7;;;;;;;16.04;69.53809;1006.884;;;;
2019/09/02 04:29:04;;;;;;;5.8;3.6;;;;;;;15.88;69.84863;1006.838;;;;
2019/09/02 04:31:29;;;;;;;5.8;3.7;;;;;;;15.82;69.49219;1006.841;;;;
2019/09/02 04:33:54;;;;;;;5.6;3.3;;;;;;;15.73;69.31543;1006.845;;;;
2019/09/02 04:36:19;;;;;;;6;3.5;;;;;;;15.73;69.37305;1006.881;;;;
2019/09/02 04:38:44;;;;;;;6;3.6;;;;;;;15.83;69.05273;1006.91;;;;
2019/09/02 04:41:09;;;;;;;6.7;3.4;;;;;;;15.69;68.92773;1006.903;;;;
2019/09/02 04:43:34;;;;;;;5.8;3.3;;;;;;;15.61;68.94824;1006.893;;;;
2019/09/02 04:45:59;;;;;;;4.4;3.3;;;;;;;15.57;69.11621;1006.938;;;;
2019/09/02 04:48:24;;;;;;;5.8;3.7;;;;;;;15.62;69.04395;1006.965;;;;
2019/09/02 04:50:50;;;;;;;4.4;3;;;;;;;15.74;67.87891;1007.002;;;;
2019/09/02 04:53:15;;;;;;;4.6;3;;;;;;;15.59;68.24023;1007.063;;;;
2019/09/02 04:55:40;;;;;;;6;3;;;;;;;15.6;68.34473;1007.018;;;;
2019/09/02 04:58:05;;;;;;;5;2.9;;;;;;;15.5;68.3291;1007.015;;;;
2019/09/02 05:00:30;;;;;;;5.5;2.8;;;;;;;15.57;67.81934;1007.021;;;;
2019/09/02 05:02:55;;;;;;;4.3;2.6;;;;;;;15.61;67.75684;1007.065;;;;
2019/09/02 05:05:21;;;;;;;3.9;2.8;;;;;;;15.63;67.59668;1007.108;;;;
2019/09/02 05:07:46;;;;;;;5.4;2.9;;;;;;;15.63;67.59668;1007.135;;;;
2019/09/02 05:10:11;;;;;;;5.1;2.8;;;;;;;15.53;67.9043;1007.115;;;;
2019/09/02 05:12:36;;;;;;;4.8;2.8;;;;;;;15.58;68.02832;1007.2;;;;
2019/09/02 05:15:01;;;;;;;5;2.9;;;;;;;15.73;67.60059;1007.156;;;;
2019/09/02 05:17:26;;;;;;;4.4;2.7;;;;;;;15.88;66.84668;1007.225;;;;
2019/09/02 05:19:51;;;;;;;3.7;2.7;;;;;;;15.99;66.30762;1007.322;;;;
2019/09/02 05:22:16;;;;;;;4.7;2.6;;;;;;;15.95;66.70703;1007.333;;;;
2019/09/02 05:24:41;;;;;;;2.7;2.1;;;;;;;16;66.10059;1007.319;;;;
2019/09/02 05:27:07;;;;;;;2.9;2.3;;;;;;;16.18;65.94141;1007.341;;;;
2019/09/02 05:29:32;;;;;;;5.2;2.5;;;;;;;16.17;65.44238;1007.374;;;;
2019/09/02 05:31:57;;;;;;;5.7;2.6;;;;;;;15.99;66.35449;1007.4;;;;
2019/09/02 05:34:22;;;;;;;4.7;2.5;;;;;;;15.88;66.45215;1007.365;;;;
2019/09/02 05:36:47;;;;;;;4.3;2.6;;;;;;;15.79;67.10059;1007.333;;;;
2019/09/02 05:39:12;;;;;;;4.7;2.4;;;;;;;15.81;66.89453;1007.38;;;;
2019/09/02 05:41:37;;;;;;;4.6;2.8;;;;;;;15.65;67.36816;1007.427;;;;
2019/09/02 05:44:02;;;;;;;4.2;2.7;;;;;;;15.59;67.66113;1007.435;;;;
2019/09/02 05:46:28;;;;;;;3.5;2.8;;;;;;;15.72;67.27344;1007.47;;;;
2019/09/02 05:48:53;;;;;;;5.3;2.7;;;;;;;15.77;66.92285;1007.537;;;;
2019/09/02 05:51:18;;;;;;;4.6;2.8;;;;;;;15.82;66.87207;1007.554;;;;
2019/09/02 05:53:43;;;;;;;5.4;2.7;;;;;;;15.81;66.94141;1007.6;;;;
2019/09/02 05:56:09;;;;;;;3.7;2.6;;;;;;;16.07;65.95898;1007.653;;;;
2019/09/02 05:58:33;;;;;;;6.1;2.8;;;;;;;16.06;65.7959;1007.673;;;;
2019/09/02 06:00:58;;;;;;;4.1;2.4;;;;;;;16.22;65.56543;1007.801;;;;
2019/09/02 06:03:24;;;;;;;4.5;2.5;;;;;;;16.74;64.45898;1007.826;;;;
2019/09/02 06:05:49;;;;;;;2.9;1.9;;;;;;;17.31;62.25195;1007.857;;;;
2019/09/02 06:08:14;;;;;;;4;2.4;;;;;;;17.25;62.18555;1007.903;;;;
2019/09/02 06:10:42;;;;;;;5.1;2.6;;;;;;;17.26;61.75684;1007.885;;;;
2019/09/02 06:13:04;;;;;;;6.6;2.6;;;;;;;17.64;60.51758;1007.932;;;;
2019/09/02 06:15:29;;;;;;;4;2.5;;;;;;;17.47;60.90234;1007.992;;;;
2019/09/02 06:17:54;;;;;;;5.3;2.6;;;;;;;17.51;60.83691;1007.979;;;;
2019/09/02 06:20:20;;;;;;;3.6;2.3;;;;;;;18.22;58.82715;1008.026;;;;
2019/09/02 06:22:45;;;;;;;4.8;2.4;;;;;;;17.92;59.57715;1008.037;;;;
2019/09/02 06:25:10;;;;;;;3.6;2.1;;;;;;;18.6;57.86426;1008.064;;;;
2019/09/02 06:27:35;;;;;;;5;2.3;;;;;;;19.39;54.8125;1008.107;;;;
2019/09/02 06:30:00;;;;;;;4.6;2.3;;;;;;;19.64;53.81543;1008.145;;;;
2019/09/02 06:32:25;;;;;;;5.5;2.6;;;;;;;18.96;55.92773;1008.135;;;;
2019/09/02 06:34:50;;;;;;;5;2.5;;;;;;;19.53;54.36328;1008.11;;;;
2019/09/02 06:37:15;;;;;;;4.4;2.2;;;;;;;20.5;51.96484;1008.142;;;;
2019/09/02 06:39:40;;;;;;;4.8;2.5;;;;;;;20.61;51.4502;1008.134;;;;
2019/09/02 06:42:05;;;;;;;4;2.2;;;;;;;20.65;51.16211;1008.155;;;;
2019/09/02 06:44:31;;;;;;;3.4;2.5;;;;;;;21.13;49.58691;1008.27;;;;
2019/09/02 06:46:56;;;;;;;5.4;2.7;;;;;;;21.85;47.49512;1008.298;;;;
2019/09/02 06:49:21;;;;;;;6.2;2.9;;;;;;;22.54;46.21484;1008.331;;;;
2019/09/02 06:51:46;;;;;;;5.6;2.4;;;;;;;22.83;45.00879;1008.342;;;;
2019/09/02 06:54:11;;;;;;;4;2.4;;;;;;;22.41;46.40137;1008.292;;;;
2019/09/02 06:56:37;;;;;;;4.7;2.2;;;;;;;24.12;42.51855;1008.344;;;;
2019/09/02 06:59:02;;;;;;;3.9;2.3;;;;;;;23.1;44.35352;1008.418;;;;
2019/09/02 07:01:27;;;;;;;3.8;2.6;;;;;;;22.8;44.8877;1008.415;;;;
2019/09/02 07:03:52;;;;;;;4.6;2.2;;;;;;;24.65;41.41016;1008.464;;;;
2019/09/02 07:06:18;;;;;;;6.3;2.6;;;;;;;25.38;39.72656;1008.472;;;;
2019/09/02 07:08:43;;;;;;;4.8;2.1;;;;;;;25.62;38.90625;1008.542;;;;
2019/09/02 07:11:09;;;;;;;4.1;2.6;;;;;;;27.37;35.12109;1008.516;;;;
2019/09/02 07:13:33;;;;;;;5.9;2.8;;;;;;;27.94;34.53516;1008.584;;;;
2019/09/02 07:15:58;;;;;;;4;1.8;;;;;;;27.42;34.95898;1008.596;;;;
2019/09/02 07:18:23;;;;;;;3.6;2.2;;;;;;;27.13;35.44629;1008.587;;;;
2019/09/02 07:20:49;;;;;;;4.3;2.8;;;;;;;28;33.91992;1008.614;;;;
2019/09/02 07:23:14;;;;;;;3.7;2.2;;;;;;;26.57;36.23438;1008.699;;;;
2019/09/02 07:25:39;;;;;;;5.1;2;;;;;;;27.16;35.5332;1008.696;;;;
2019/09/02 07:28:04;;;;;;;4.2;1.8;;;;;;;28.32;33.78906;1008.798;;;;
2019/09/02 07:30:29;;;;;;;3.7;1.8;;;;;;;27.97;33.69141;1008.772;;;;
2019/09/02 07:32:54;;;;;;;3.7;2.1;;;;;;;27.34;34.42871;1008.8;;;;
2019/09/02 07:35:20;;;;;;;3.5;1.7;;;;;;;27.79;34.64258;1008.762;;;;
2019/09/02 07:37:45;;;;;;;4.5;1.9;;;;;;;28.91;32.66406;1008.794;;;;
2019/09/02 07:40:10;;;;;;;3.1;1.8;;;;;;;28.55;32.45898;1008.796;;;;
2019/09/02 07:42:35;;;;;;;4.1;1.8;;;;;;;28.34;33.14648;1008.787;;;;
2019/09/02 07:45:00;;;;;;;3;1.6;;;;;;;29.4;31.73145;1008.805;;;;
2019/09/02 07:47:25;;;;;;;3.3;1.7;;;;;;;29.61;30.6709;1008.85;;;;
2019/09/02 07:49:50;;;;;;;3.5;1.7;;;;;;;29.65;30.64941;1008.833;;;;
2019/09/02 07:52:15;;;;;;;3.7;1.6;;;;;;;32.06;26.90723;1008.837;;;;
2019/09/02 07:54:40;;;;;;;3.9;1.8;;;;;;;31.53;27.2959;1008.919;;;;
2019/09/02 07:57:06;;;;;;;4.8;2;;;;;;;29.55;30.53516;1008.901;;;;
2019/09/02 07:59:31;;;;;;;6.3;2;;;;;;;28.8;31.84473;1008.876;;;;
2019/09/02 08:01:56;;;;;;;3.7;1.7;;;;;;;29.3;31.24609;1008.956;;;;
2019/09/02 08:04:21;;;;;;;3.8;1.7;;;;;;;29.82;30.34961;1008.928;;;;
2019/09/02 08:06:46;;;;;;;2.9;1.8;;;;;;;31.4;27.75586;1009.005;;;;
2019/09/02 08:09:11;;;;;;;3.6;1.6;;;;;;;32.12;26.94629;1009.001;;;;
2019/09/02 08:11:36;;;;;;;3.9;1.8;;;;;;;31.36;27.51367;1008.977;;;;
2019/09/02 08:14:01;;;;;;;3.8;1.5;;;;;;;31.13;27.5957;1008.993;;;;
2019/09/02 08:16:27;;;;;;;3.5;1.7;;;;;;;33.14;25.30859;1009.001;;;;
2019/09/02 08:18:52;;;;;;;4.8;2;;;;;;;33.5;24.06348;1008.998;;;;
2019/09/02 08:21:17;;;;;;;4.3;2.1;;;;;;;33.19;24.91406;1009.06;;;;
2019/09/02 08:23:42;;;;;;;4.1;2.2;;;;;;;33.28;24.46094;1009.026;;;;
2019/09/02 08:26:07;;;;;;;3.7;1.8;;;;;;;33.23;24.71191;1009.064;;;;
2019/09/02 08:28:32;;;;;;;3;1.7;;;;;;;32.85;25.04004;1009.015;;;;
2019/09/02 08:30:57;;;;;;;3.4;1.5;;;;;;;31.2;27.22754;1009.055;;;;
2019/09/02 08:33:22;;;;;;;3.8;1.7;;;;;;;31.3;27.37793;1009.085;;;;
2019/09/02 08:35:47;;;;;;;4.8;1.8;;;;;;;30.69;28.10742;1009.186;;;;
2019/09/02 08:38:12;;;;;;;2.6;1.7;;;;;;;30.41;28.33008;1009.212;;;;
2019/09/02 08:40:38;;;;;;;3.3;1.4;;;;;;;31.05;27.72266;1009.216;;;;
2019/09/02 08:43:03;;;;;;;2.8;1.5;;;;;;;30.52;28.87598;1009.186;;;;
2019/09/02 08:45:28;;;;;;;5.4;1.5;;;;;;;31.26;27.83105;1009.27;;;;
2019/09/02 08:47:53;;;;;;;4.5;1.6;;;;;;;29.45;30.20508;1009.263;;;;
2019/09/02 08:50:18;;;;;;;3.4;1.9;;;;;;;28.31;31.8457;1009.294;;;;
2019/09/02 08:52:43;;;;;;;5.2;1.8;;;;;;;27.13;34.34082;1009.345;;;;
2019/09/02 08:55:08;;;;;;;5.4;1.7;;;;;;;27.93;33.02148;1009.279;;;;
2019/09/02 08:57:33;;;;;;;3.7;1.9;;;;;;;29.81;30.45703;1009.312;;;;
2019/09/02 08:59:58;;;;;;;8.3;4.7;;;;;;;28.09;32.80664;1009.306;;;;
2019/09/02 09:02:24;;;;;;;6;3.9;;;;;;;27.88;33.41016;1009.245;;;;
2019/09/02 09:04:49;;;;;;;5.2;2.8;;;;;;;26.53;35.66113;1009.261;;;;
2019/09/02 09:07:14;;;;;;;3.9;2.4;;;;;;;25.17;38.80762;1009.194;;;;
2019/09/02 09:09:39;;;;;;;3.9;2.1;;;;;;;26.09;37.41699;1009.193;;;;
2019/09/02 09:12:04;;;;;;;4.4;2.3;;;;;;;28.71;32.53027;1009.159;;;;
2019/09/02 09:14:30;;;;;;;5.4;2.4;;;;;;;29.71;31.05957;1009.139;;;;
2019/09/02 09:16:55;;;;;;;6.8;2.5;;;;;;;29.34;31.44043;1009.057;;;;
2019/09/02 09:19:20;;;;;;;4.7;2.1;;;;;;;30.11;30.16602;1009.049;;;;
2019/09/02 09:21:45;;;;;;;3.7;1.8;;;;;;;31.34;28.14844;1009.061;;;;
2019/09/02 09:24:10;;;;;;;3.1;1.9;;;;;;;31.52;28.14746;1009.093;;;;
2019/09/02 09:26:35;;;;;;;6.5;2.1;;;;;;;31.29;28.28906;1009.086;;;;
2019/09/02 09:29:00;;;;;;;5;2;;;;;;;30.21;29.57422;1009.085;;;;
2019/09/02 09:31:25;;;;;;;5.2;2.2;;;;;;;29.06;31.64844;1009.035;;;;
2019/09/02 09:33:51;;;;;;;5.3;2;;;;;;;30.48;29.51953;1009.052;;;;
2019/09/02 09:36:16;;;;;;;4.9;2.5;;;;;;;29.76;29.64063;1009.06;;;;
2019/09/02 09:38:41;;;;;;;4.8;2.8;;;;;;;26.56;34.14453;1009.167;;;;
2019/09/02 09:41:06;;;;;;;4.8;2.9;;;;;;;26.49;34.79102;1009.158;;;;
2019/09/02 09:43:31;;;;;;;5.2;2.7;;;;;;;26.4;34.8916;1009.12;;;;
2019/09/02 09:45:56;;;;;;;6.6;2.7;;;;;;;26.22;35.56543;1009.146;;;;
2019/09/02 09:48:21;;;;;;;5.1;2.2;;;;;;;27.18;33.65625;1009.137;;;;
2019/09/02 09:50:46;;;;;;;4.2;1.9;;;;;;;28.73;31.35059;1009.124;;;;
2019/09/02 09:53:11;;;;;;;3.7;2.1;;;;;;;30.33;28.74414;1009.091;;;;
2019/09/02 09:55:37;;;;;;;4.6;2.3;;;;;;;30.12;29.19727;1009.06;;;;
2019/09/02 09:58:02;;;;;;;4;2.5;;;;;;;28.39;31.76855;1009.029;;;;
2019/09/02 10:00:27;;;;;;;6.7;2.3;;;;;;;28.23;31.73242;1009.049;;;;
2019/09/02 10:02:52;;;;;;;5.2;2.3;;;;;;;29.16;30.44922;1009.043;;;;
2019/09/02 10:05:17;;;;;;;4.3;2.1;;;;;;;28.14;31.70313;1009.001;;;;
2019/09/02 10:07:42;;;;;;;3.2;1.7;;;;;;;28.75;31.2207;1009.036;;;;
2019/09/02 10:10:07;;;;;;;4.1;2;;;;;;;27.55;32.30371;1008.998;;;;
2019/09/02 10:12:32;;;;;;;4;2.1;;;;;;;26.61;33.58984;1009.004;;;;
2019/09/02 10:14:57;;;;;;;4;1.9;;;;;;;25.86;35.02637;1009.01;;;;
2019/09/02 10:17:22;;;;;;;4.3;1.9;;;;;;;25.64;35.02148;1008.986;;;;
2019/09/02 10:19:47;;;;;;;3.2;1.6;;;;;;;25.77;34.43848;1009.055;;;;
2019/09/02 10:22:12;;;;;;;4.4;1.7;;;;;;;25.16;35.26855;1009.007;;;;
2019/09/02 10:24:38;;;;;;;3.9;1.6;;;;;;;25.23;34.62305;1009.002;;;;
2019/09/02 10:27:03;;;;;;;6.6;2;;;;;;;25.19;34.96289;1009.064;;;;
2019/09/02 10:29:28;;;;;;;5.4;2.1;;;;;;;24.96;34.50684;1008.997;;;;
2019/09/02 10:31:53;;;;;;;4.9;2.1;;;;;;;25.86;32.83398;1009.027;;;;
2019/09/02 10:34:18;;;;;;;4.2;1.9;;;;;;;26.25;31.92578;1009.04;;;;
2019/09/02 10:36:43;;;;;;;3.3;1.8;;;;;;;27.13;31.39355;1009.016;;;;
2019/09/02 10:39:08;;;;;;;3.5;1.8;;;;;;;26.86;30.47168;1009.013;;;;
2019/09/02 10:41:33;;;;;;;3.7;2;;;;;;;26.88;30.14063;1008.995;;;;
2019/09/02 10:43:59;;;;;;;3.4;1.5;;;;;;;25.21;32.72656;1008.983;;;;
2019/09/02 10:46:24;;;;;;;5.2;1.9;;;;;;;24.37;33.71777;1008.982;;;;
2019/09/02 10:48:49;;;;;;;5.8;1.9;;;;;;;23.47;34.67578;1008.973;;;;
2019/09/02 10:51:14;;;;;;;4.8;1.6;;;;;;;23.86;33.92676;1008.886;;;;
2019/09/02 10:53:39;;;;;;;3.2;1.6;;;;;;;23.85;35.40039;1008.943;;;;
2019/09/02 10:56:04;;;;;;;4.7;1.4;;;;;;;24.36;34.85059;1008.945;;;;
2019/09/02 10:58:30;;;;;;;3.4;1.3;;;;;;;24.74;34.27734;1008.89;;;;
2019/09/02 11:00:55;;;;;;;4.1;1.5;;;;;;;24.74;33.75684;1008.862;;;;
2019/09/02 11:03:20;;;;;;;3.4;1.9;;;;;;;25.19;33.15137;1008.841;;;;
2019/09/02 11:05:45;;;;;;;4.2;1.4;;;;;;;24.81;33.39551;1008.873;;;;
2019/09/02 11:08:10;;;;;;;3.1;1.4;;;;;;;24.68;33.84668;1008.865;;;;
2019/09/02 11:10:35;;;;;;;3.3;1.4;;;;;;;24.81;32.86426;1008.895;;;;
2019/09/02 11:13:00;;;;;;;2.4;1.4;;;;;;;25.11;32.1748;1008.872;;;;
2019/09/02 11:15:25;;;;;;;3.9;1.3;;;;;;;24.99;32.15527;1008.832;;;;
2019/09/02 11:17:51;;;;;;;5.6;1.4;;;;;;;25.06;32.05371;1008.83;;;;
2019/09/02 11:20:16;;;;;;;3.1;1.2;;;;;;;25.69;31.04395;1008.877;;;;
2019/09/02 11:22:41;;;;;;;2.3;1.3;;;;;;;25.41;30.78809;1008.931;;;;
2019/09/02 11:25:06;;;;;;;5.5;1.3;;;;;;;24.99;31.03125;1008.867;;;;
2019/09/02 11:27:31;;;;;;;2.8;1.2;;;;;;;25.38;30.13477;1008.9;;;;
2019/09/02 11:29:56;;;;;;;2.6;1;;;;;;;25.63;30.54199;1008.985;;;;
2019/09/02 11:32:21;;;;;;;3.2;1.2;;;;;;;25.58;29.49609;1008.901;;;;
2019/09/02 11:34:46;;;;;;;3.5;1.2;;;;;;;25.13;30.24805;1008.876;;;;
2019/09/02 11:37:12;;;;;;;2.6;1.4;;;;;;;24.83;31.75293;1008.909;;;;
2019/09/02 11:39:37;;;;;;;2.6;1.1;;;;;;;23.64;32.6709;1008.897;;;;
2019/09/02 11:42:02;;;;;;;2.9;1.2;;;;;;;23.34;33.26172;1008.908;;;;
2019/09/02 11:44:27;;;;;;;3.7;1.2;;;;;;;23.29;34.2373;1008.953;;;;
2019/09/02 11:46:52;;;;;;;2.7;1.4;;;;;;;22.37;35.45996;1008.957;;;;
2019/09/02 11:49:17;;;;;;;4.9;1.3;;;;;;;22.28;35.87598;1008.896;;;;
2019/09/02 11:51:42;;;;;;;2.4;1;;;;;;;22.97;34.43555;1008.889;;;;
2019/09/02 11:54:08;;;;;;;2.2;0.9;;;;;;;23.76;33.34082;1008.939;;;;
2019/09/02 11:56:34;;;;;;;1.6;1;;;;;;;24.27;32.03223;1008.931;;;;
2019/09/02 11:58:58;;;;;;;2.1;1;;;;;;;24.46;30.95898;1008.882;;;;
2019/09/02 12:01:23;;;;;;;1.8;0.9;;;;;;;24.98;30.46289;1008.864;;;;
2019/09/02 12:03:48;;;;;;;3.1;0.9;;;;;;;25.34;29.00684;1008.927;;;;
2019/09/02 12:06:13;;;;;;;2.1;0.9;;;;;;;24.44;29.33789;1008.903;;;;
2019/09/02 12:08:39;;;;;;;3;1.1;;;;;;;24.3;29.93164;1008.881;;;;
2019/09/02 12:11:04;;;;;;;2;1.1;;;;;;;24.79;29.08984;1008.878;;;;
2019/09/02 12:13:29;;;;;;;2.9;0.9;;;;;;;25.1;28.37598;1008.827;;;;
2019/09/02 12:15:54;;;;;;;2.7;1;;;;;;;25.02;28.79785;1008.807;;;;
2019/09/02 12:18:19;;;;;;;2.3;1;;;;;;;24.89;28.2207;1008.807;;;;
2019/09/02 12:20:44;;;;;;;3.3;1.8;;;;;;;25.07;27.47461;1008.76;;;;
2019/09/02 12:23:09;;;;;;;1.6;0.9;;;;;;;24.94;28.40137;1008.815;;;;
2019/09/02 12:25:34;;;;;;;1.9;0.8;;;;;;;24.97;28.48633;1008.715;;;;
2019/09/02 12:27:59;;;;;;;1.9;1;;;;;;;25.09;28.625;1008.751;;;;
2019/09/02 12:30:24;;;;;;;1.9;0.9;;;;;;;24.86;28.8584;1008.687;;;;
2019/09/02 12:32:50;;;;;;;2.1;1;;;;;;;24.99;28.99609;1008.675;;;;
2019/09/02 12:35:15;;;;;;;2.7;0.9;;;;;;;24.63;29.29199;1008.615;;;;
2019/09/02 12:37:40;;;;;;;1.7;0.9;;;;;;;24.65;29.87207;1008.646;;;;
2019/09/02 12:40:05;;;;;;;1.9;0.9;;;;;;;25.02;29.56641;1008.607;;;;
2019/09/02 12:42:30;;;;;;;2.8;1;;;;;;;24.76;30.44727;1008.66;;;;
2019/09/02 12:44:55;;;;;;;3.3;1.2;;;;;;;24.34;30.36035;1008.737;;;;
2019/09/02 12:47:20;;;;;;;3.8;2.1;;;;;;;24.43;30.74414;1008.738;;;;
2019/09/02 12:49:45;;;;;;;2.2;1;;;;;;;24.32;30.61816;1008.675;;;;
2019/09/02 12:52:10;;;;;;;2;1;;;;;;;24.41;30.06934;1008.587;;;;
2019/09/02 12:54:35;;;;;;;3;1;;;;;;;24.44;29.88184;1008.639;;;;
2019/09/02 12:57:00;;;;;;;2.5;1.7;;;;;;;24.09;31.06348;1008.622;;;;
2019/09/02 12:59:26;;;;;;;3.3;1.3;;;;;;;24.21;31.20117;1008.556;;;;
2019/09/02 13:01:51;;;;;;;4.4;1;;;;;;;24.36;30.45605;1008.521;;;;
2019/09/02 13:04:16;;;;;;;2.8;1.2;;;;;;;24.33;30.92676;1008.508;;;;
2019/09/02 13:06:41;;;;;;;2.3;1;;;;;;;24.39;31.04785;1008.525;;;;
2019/09/02 13:09:06;;;;;;;1.8;0.8;;;;;;;23.65;31.79883;1008.484;;;;
2019/09/02 13:11:32;;;;;;;2.8;1.1;;;;;;;23.69;32.75781;1008.507;;;;
2019/09/02 13:13:58;;;;;;;3.6;1;;;;;;;24.29;31.30078;1008.504;;;;
2019/09/02 13:16:21;;;;;;;1.4;0.9;;;;;;;24.39;30.375;1008.491;;;;
2019/09/02 13:18:47;;;;;;;2.2;1;;;;;;;24.49;29.9209;1008.548;;;;
2019/09/02 13:21:12;;;;;;;2.3;0.9;;;;;;;24.59;30.12793;1008.545;;;;
2019/09/02 13:23:37;;;;;;;2.3;0.8;;;;;;;24.43;29.58594;1008.56;;;;
2019/09/02 13:26:02;;;;;;;3.1;1.1;;;;;;;24.14;30.00391;1008.495;;;;
2019/09/02 13:28:28;;;;;;;1.6;0.9;;;;;;;24.39;29.9375;1008.498;;;;
2019/09/02 13:30:53;;;;;;;2.8;0.9;;;;;;;24;29.93555;1008.483;;;;
2019/09/02 13:33:18;;;;;;;1.7;0.9;;;;;;;23.64;30.67773;1008.497;;;;
2019/09/02 13:35:43;;;;;;;3.4;1;;;;;;;23.45;30.45215;1008.494;;;;
2019/09/02 13:38:08;;;;;;;1.8;1;;;;;;;23.59;30.62695;1008.36;;;;
2019/09/02 13:40:33;;;;;;;1;0.8;;;;;;;23.74;30.24805;1008.451;;;;
2019/09/02 13:42:59;;;;;;;3.7;1.1;;;;;;;23.38;30.99023;1008.442;;;;
2019/09/02 13:45:25;;;;;;;0.9;0.8;;;;;;;23.67;30.65625;1008.383;;;;
2019/09/02 13:47:49;;;;;;;1.8;0.8;;;;;;;24.12;29.94336;1008.423;;;;
2019/09/02 13:50:14;;;;;;;3.6;1.1;;;;;;;23.97;29.53223;1008.384;;;;
2019/09/02 13:52:40;;;;;;;1.6;0.9;;;;;;;23.85;30.50293;1008.382;;;;
2019/09/02 13:55:05;;;;;;;1.7;0.8;;;;;;;23.98;29.68555;1008.317;;;;
2019/09/02 13:57:30;;;;;;;2.2;0.9;;;;;;;24.3;29.47168;1008.336;;;;
2019/09/02 13:59:55;;;;;;;1.7;0.9;;;;;;;24.24;29.3252;1008.217;;;;
2019/09/02 14:02:20;;;;;;;5.1;0.9;;;;;;;24.12;29.3291;1008.257;;;;
2019/09/02 14:04:46;;;;;;;1.6;0.8;;;;;;;23.7;30.41016;1008.282;;;;
2019/09/02 14:07:11;;;;;;;2;1.1;;;;;;;23.97;30.42969;1008.263;;;;
2019/09/02 14:09:36;;;;;;;1.8;0.9;;;;;;;24.07;29.75098;1008.331;;;;
2019/09/02 14:12:01;;;;;;;2.5;0.9;;;;;;;24.08;29.20801;1008.274;;;;
2019/09/02 14:14:26;;;;;;;1.4;1;;;;;;;23.91;28.97363;1008.196;;;;